createdAt,value
2018-07-14T00:02:18.797Z,101339.23
2018-07-14T00:04:45.935Z,101340.30
2018-07-14T00:07:13.060Z,101339.97
2018-07-14T00:09:40.217Z,101345.83
2018-07-14T00:12:07.502Z,101339.70
2018-07-14T00:14:34.589Z,101338.74
2018-07-14T00:17:02.782Z,101336.63
2018-07-14T00:19:29.880Z,101333.16
2018-07-14T00:21:58.680Z,101334.66
2018-07-14T00:24:25.974Z,101336.28
2018-07-14T00:26:53.034Z,101336.67
2018-07-14T00:29:20.147Z,101332.34
2018-07-14T00:31:47.401Z,101333.16
2018-07-14T00:34:14.581Z,101338.11
2018-07-14T00:36:41.731Z,101336.86
2018-07-14T00:39:08.884Z,101340.15
2018-07-14T00:41:36.003Z,101335.35
2018-07-14T00:44:03.080Z,101342.30
2018-07-14T00:46:31.396Z,101345.36
2018-07-14T00:48:58.508Z,101335.11
2018-07-14T00:51:25.596Z,101341.02
2018-07-14T00:53:52.804Z,101338.05
2018-07-14T00:56:21.164Z,101341.71
2018-07-14T00:58:48.707Z,101343.09
2018-07-14T01:01:15.928Z,101349.03
2018-07-14T01:03:43.043Z,101350.31
2018-07-14T01:06:10.173Z,101346.38
2018-07-14T01:08:37.369Z,101353.12
2018-07-14T01:11:04.523Z,101352.92
2018-07-14T01:13:32.644Z,101353.59
2018-07-14T01:15:59.780Z,101354.07
2018-07-14T01:18:26.851Z,101352.39
2018-07-14T01:20:55.006Z,101355.67
2018-07-14T01:23:22.247Z,101360.52
2018-07-14T01:25:49.364Z,101353.97
2018-07-14T01:28:16.496Z,101361.85
2018-07-14T01:30:44.347Z,101360.01
2018-07-14T01:33:11.430Z,101361.85
2018-07-14T01:35:38.579Z,101363.13
2018-07-14T01:38:05.847Z,101359.72
2018-07-14T01:40:32.994Z,101358.44
2018-07-14T01:43:00.096Z,101357.30
2018-07-14T01:45:28.868Z,101360.58
2018-07-14T01:47:56.024Z,101357.00
2018-07-14T01:50:23.135Z,101358.39
2018-07-14T01:52:50.658Z,101356.73
2018-07-14T01:55:17.847Z,101356.28
2018-07-14T01:57:45.077Z,101357.75
2018-07-14T02:00:12.620Z,101358.20
2018-07-14T02:02:39.840Z,101355.14
2018-07-14T02:05:07.525Z,101361.64
2018-07-14T02:07:35.654Z,101364.70
2018-07-14T02:10:02.797Z,101361.59
2018-07-14T02:12:29.998Z,101361.78
2018-07-14T02:14:57.118Z,101356.19
2018-07-14T02:17:24.225Z,101349.49
2018-07-14T02:19:51.333Z,101359.66
2018-07-14T02:22:20.487Z,101353.13
2018-07-14T02:24:47.595Z,101353.62
2018-07-14T02:27:16.863Z,101348.52
2018-07-14T02:29:44.035Z,101356.65
2018-07-14T02:32:11.185Z,101353.66
2018-07-14T02:34:38.572Z,101355.34
2018-07-14T02:37:05.783Z,101362.19
2018-07-14T02:39:33.008Z,101359.38
2018-07-14T02:42:00.117Z,101363.83
2018-07-14T02:44:28.447Z,101360.20
2018-07-14T02:46:55.559Z,101358.33
2018-07-14T02:49:22.652Z,101365.26
2018-07-14T02:51:52.047Z,101369.84
2018-07-14T02:54:19.168Z,101366.41
2018-07-14T02:56:46.405Z,101374.69
2018-07-14T02:59:13.548Z,101373.84
2018-07-14T03:01:41.648Z,101377.55
2018-07-14T03:04:08.863Z,101367.27
2018-07-14T03:06:36.037Z,101377.75
2018-07-14T03:09:04.183Z,101377.25
2018-07-14T03:11:31.275Z,101383.78
2018-07-14T03:14:00.539Z,101378.80
2018-07-14T03:16:27.767Z,101379.77
2018-07-14T03:18:54.897Z,101370.09
2018-07-14T03:21:22.031Z,101377.52
2018-07-14T03:23:49.156Z,101374.28
2018-07-14T03:26:16.279Z,101375.55
2018-07-14T03:28:44.417Z,101369.58
2018-07-14T03:31:13.284Z,101373.09
2018-07-14T03:33:40.408Z,101370.45
2018-07-14T03:36:07.560Z,101376.11
2018-07-14T03:38:34.771Z,101375.42
2018-07-14T03:41:01.978Z,101375.34
2018-07-14T03:43:29.116Z,101377.48
2018-07-14T03:45:56.240Z,101375.88
2018-07-14T03:48:23.314Z,101376.94
2018-07-14T03:50:52.484Z,101381.92
2018-07-14T03:53:19.709Z,101378.00
2018-07-14T03:55:46.865Z,101375.61
2018-07-14T03:58:14.042Z,101385.72
2018-07-14T04:00:41.142Z,101392.53
2018-07-14T04:03:08.304Z,101389.75
2018-07-14T04:05:35.552Z,101388.47
2018-07-14T04:08:02.700Z,101394.50
2018-07-14T04:10:31.760Z,101394.97
2018-07-14T04:12:58.895Z,101391.39
2018-07-14T04:15:27.790Z,101390.48
2018-07-14T04:18:00.666Z,101389.70
2018-07-14T04:20:27.982Z,101386.09
2018-07-14T04:22:55.084Z,101397.52
2018-07-14T04:25:22.210Z,101395.15
2018-07-14T04:27:49.375Z,101399.69
2018-07-14T04:30:16.554Z,101400.17
2018-07-14T04:32:43.738Z,101401.46
2018-07-14T04:35:10.885Z,101397.07
2018-07-14T04:37:39.984Z,101405.45
2018-07-14T04:40:07.621Z,101401.92
2018-07-14T04:42:34.831Z,101396.98
2018-07-14T04:45:02.045Z,101398.17
2018-07-14T04:47:29.246Z,101394.86
2018-07-14T04:49:56.740Z,101399.35
2018-07-14T04:52:25.825Z,101395.83
2018-07-14T04:54:53.111Z,101394.81
2018-07-14T04:57:20.389Z,101397.52
2018-07-14T04:59:47.985Z,101393.40
2018-07-14T05:02:15.493Z,101398.00
2018-07-14T05:04:43.589Z,101395.22
2018-07-14T05:07:10.696Z,101395.52
2018-07-14T05:09:38.514Z,101395.06
2018-07-14T05:12:06.379Z,101398.06
2018-07-14T05:14:33.534Z,101397.83
2018-07-14T05:17:01.847Z,101392.23
2018-07-14T05:19:29.331Z,101399.30
2018-07-14T05:21:57.228Z,101395.91
2018-07-14T05:24:25.502Z,101401.58
2018-07-14T05:26:52.961Z,101395.56
2018-07-14T05:29:20.354Z,101399.55
2018-07-14T05:31:47.610Z,101403.76
2018-07-14T05:34:14.719Z,101399.15
2018-07-14T05:36:41.836Z,101394.05
2018-07-14T05:39:09.899Z,101397.05
2018-07-14T05:41:37.943Z,101401.77
2018-07-14T05:44:05.349Z,101404.27
2018-07-14T05:46:32.648Z,101401.09
2018-07-14T05:48:59.933Z,101413.56
2018-07-14T05:51:27.024Z,101408.82
2018-07-14T05:53:54.293Z,101421.34
2018-07-14T05:56:23.561Z,101424.62
2018-07-14T05:58:50.777Z,101431.80
2018-07-14T06:01:18.375Z,101429.92
2018-07-14T06:03:46.166Z,101433.34
2018-07-14T06:06:13.363Z,101433.78
2018-07-14T06:08:40.564Z,101437.02
2018-07-14T06:11:07.722Z,101435.38
2018-07-14T06:13:34.851Z,101436.50
2018-07-14T06:16:02.156Z,101439.99
2018-07-14T06:18:29.320Z,101437.71
2018-07-14T06:20:56.418Z,101436.91
2018-07-14T06:23:23.673Z,101445.47
2018-07-14T06:25:50.779Z,101443.92
2018-07-14T06:28:19.052Z,101449.33
2018-07-14T06:30:46.248Z,101446.92
2018-07-14T06:33:13.596Z,101452.59
2018-07-14T06:35:40.729Z,101450.97
2018-07-14T06:38:07.891Z,101457.70
2018-07-14T06:40:35.181Z,101457.66
2018-07-14T06:43:02.347Z,101459.56
2018-07-14T06:45:29.572Z,101448.59
2018-07-14T06:47:56.847Z,101450.44
2018-07-14T06:50:23.966Z,101446.25
2018-07-14T06:52:51.260Z,101451.59
2018-07-14T06:55:18.551Z,101455.81
2018-07-14T06:57:45.708Z,101459.68
2018-07-14T07:00:13.037Z,101451.70
2018-07-14T07:02:40.202Z,101457.27
2018-07-14T07:05:07.677Z,101460.45
2018-07-14T07:07:34.914Z,101454.83
2018-07-14T07:10:03.572Z,101458.03
2018-07-14T07:12:30.688Z,101453.92
2018-07-14T07:15:00.388Z,101456.99
2018-07-14T07:17:27.781Z,101458.59
2018-07-14T07:19:55.319Z,101459.00
2018-07-14T07:22:23.013Z,101467.97
2018-07-14T07:24:50.754Z,101458.22
2018-07-14T07:27:17.955Z,101458.33
2018-07-14T07:29:46.457Z,101465.19
2018-07-14T07:32:14.820Z,101465.26
2018-07-14T07:34:42.261Z,101468.41
2018-07-14T07:37:09.532Z,101463.95
2018-07-14T07:39:36.705Z,101467.87
2018-07-14T07:42:03.856Z,101465.93
2018-07-14T07:44:32.019Z,101472.20
2018-07-14T07:46:59.133Z,101473.70
2018-07-14T07:49:26.274Z,101469.89
2018-07-14T07:51:53.437Z,101469.44
2018-07-14T07:54:20.527Z,101465.73
2018-07-14T07:56:47.667Z,101473.23
2018-07-14T07:59:14.840Z,101469.00
2018-07-14T08:01:42.062Z,101471.48
2018-07-14T08:04:09.387Z,101472.68
2018-07-14T08:06:36.680Z,101474.56
2018-07-14T08:09:05.163Z,101478.11
2018-07-14T08:11:32.280Z,101474.45
2018-07-14T08:13:59.478Z,101472.40
2018-07-14T08:16:26.707Z,101470.75
2018-07-14T08:18:53.807Z,101487.20
2018-07-14T08:21:21.017Z,101474.55
2018-07-14T08:23:48.186Z,101474.39
2018-07-14T08:26:15.487Z,101476.51
2018-07-14T08:28:42.895Z,101478.92
2018-07-14T08:31:10.194Z,101476.03
2018-07-14T08:33:37.323Z,101473.11
2018-07-14T08:36:04.724Z,101479.09
2018-07-14T08:38:31.870Z,101476.59
2018-07-14T08:40:58.995Z,101480.91
2018-07-14T08:43:26.212Z,101481.53
2018-07-14T08:45:53.549Z,101476.11
2018-07-14T08:48:20.650Z,101475.73
2018-07-14T08:50:47.825Z,101478.23
2018-07-14T08:53:14.956Z,101472.53
2018-07-14T08:55:42.212Z,101472.72
2018-07-14T08:58:09.456Z,101464.97
2018-07-14T09:00:36.543Z,101465.73
2018-07-14T09:03:03.648Z,101461.55
2018-07-14T09:05:30.856Z,101463.91
2018-07-14T09:07:59.101Z,101469.72
2018-07-14T09:10:26.285Z,101466.27
2018-07-14T09:12:53.871Z,101460.67
2018-07-14T09:15:20.980Z,101469.73
2018-07-14T09:17:48.099Z,101464.16
2018-07-14T09:20:15.299Z,101464.04
2018-07-14T09:22:42.634Z,101472.15
2018-07-14T09:25:09.841Z,101465.72
2018-07-14T09:27:37.128Z,101469.61
2018-07-14T09:30:04.469Z,101465.29
2018-07-14T09:32:31.644Z,101467.77
2018-07-14T09:34:58.871Z,101465.16
2018-07-14T09:37:26.061Z,101468.58
2018-07-14T09:39:53.196Z,101469.33
2018-07-14T09:42:20.467Z,101474.09
2018-07-14T09:44:47.669Z,101460.70
2018-07-14T09:47:14.855Z,101466.70
2018-07-14T09:49:42.109Z,101465.68
2018-07-14T09:52:09.352Z,101464.64
2018-07-14T09:54:36.516Z,101460.25
2018-07-14T09:57:03.745Z,101470.99
2018-07-14T09:59:30.989Z,101459.45
2018-07-14T10:01:58.157Z,101462.92
2018-07-14T10:04:25.352Z,101467.23
2018-07-14T10:06:52.444Z,101461.78
2018-07-14T10:09:23.689Z,101469.98
2018-07-14T10:11:50.887Z,101466.64
2018-07-14T10:14:18.005Z,101462.39
2018-07-14T10:16:45.156Z,101465.69
2018-07-14T10:19:12.420Z,101459.25
2018-07-14T10:21:39.566Z,101470.21
2018-07-14T10:24:06.871Z,101473.68
2018-07-14T10:26:34.016Z,101471.47
2018-07-14T10:29:01.196Z,101470.59
2018-07-14T10:31:28.275Z,101466.91
2018-07-14T10:33:56.472Z,101466.32
2018-07-14T10:36:24.528Z,101470.81
2018-07-14T10:38:51.768Z,101467.04
2018-07-14T10:41:20.089Z,101465.20
2018-07-14T10:43:47.533Z,101456.95
2018-07-14T10:46:14.652Z,101459.98
2018-07-14T10:48:41.842Z,101456.02
2018-07-14T10:51:10.105Z,101453.41
2018-07-14T10:53:37.244Z,101462.99
2018-07-14T10:56:04.971Z,101458.12
2018-07-14T10:58:32.110Z,101460.45
2018-07-14T11:00:59.212Z,101464.12
2018-07-14T11:03:26.442Z,101453.39
2018-07-14T11:05:53.599Z,101453.41
2018-07-14T11:08:20.783Z,101450.80
2018-07-14T11:10:48.881Z,101448.98
2018-07-14T11:13:15.967Z,101452.27
2018-07-14T11:15:43.069Z,101446.17
2018-07-14T11:18:10.313Z,101454.02
2018-07-14T11:20:38.568Z,101455.20
2018-07-14T11:23:05.697Z,101456.67
2018-07-14T11:25:32.861Z,101449.64
2018-07-14T11:28:01.776Z,101449.95
2018-07-14T11:30:28.904Z,101451.32
2018-07-14T11:32:56.316Z,101440.58
2018-07-14T11:35:23.560Z,101443.55
2018-07-14T11:37:50.733Z,101437.58
2018-07-14T11:40:17.924Z,101434.97
2018-07-14T11:42:45.192Z,101433.94
2018-07-14T11:45:12.388Z,101438.11
2018-07-14T11:47:39.960Z,101438.79
2018-07-14T11:50:07.076Z,101429.29
2018-07-14T11:52:35.310Z,101434.22
2018-07-14T11:55:02.511Z,101430.26
2018-07-14T11:57:31.567Z,101432.20
2018-07-14T11:59:58.773Z,101431.14
2018-07-14T12:02:26.016Z,101431.55
2018-07-14T12:04:53.479Z,101428.96
2018-07-14T12:07:20.673Z,101427.61
2018-07-14T12:09:47.833Z,101425.44
2018-07-14T12:12:14.951Z,101423.72
2018-07-14T12:14:42.079Z,101422.92
2018-07-14T12:17:10.959Z,101414.59
2018-07-14T12:19:38.141Z,101419.08
2018-07-14T12:22:05.266Z,101409.80
2018-07-14T12:24:34.263Z,101411.98
2018-07-14T12:27:01.379Z,101406.12
2018-07-14T12:29:29.975Z,101401.02
2018-07-14T12:31:57.454Z,101392.30
2018-07-14T12:34:24.708Z,101398.59
2018-07-14T12:36:51.896Z,101395.98
2018-07-14T12:39:19.110Z,101394.53
2018-07-14T12:41:48.114Z,101387.41
2018-07-14T12:44:15.229Z,101391.46
2018-07-14T12:46:42.370Z,101380.16
2018-07-14T12:49:09.619Z,101384.95
2018-07-14T12:51:36.772Z,101385.08
2018-07-14T12:54:03.960Z,101380.53
2018-07-14T12:56:31.110Z,101382.60
2018-07-14T12:58:58.473Z,101380.66
2018-07-14T13:01:25.776Z,101376.85
2018-07-14T13:03:53.557Z,101377.22
2018-07-14T13:06:20.751Z,101373.11
2018-07-14T13:08:47.917Z,101375.67
2018-07-14T13:11:15.180Z,101370.27
2018-07-14T13:13:42.312Z,101385.22
2018-07-14T13:16:09.538Z,101373.64
2018-07-14T13:18:36.687Z,101379.64
2018-07-14T13:21:03.840Z,101372.02
2018-07-14T13:23:31.098Z,101370.20
2018-07-14T13:25:59.265Z,101370.35
2018-07-14T13:28:26.520Z,101357.88
2018-07-14T13:30:53.772Z,101368.55
2018-07-14T13:33:22.039Z,101362.04
2018-07-14T13:35:49.133Z,101355.92
2018-07-14T13:38:18.194Z,101353.99
2018-07-14T13:40:45.357Z,101352.89
2018-07-14T13:43:12.509Z,101352.11
2018-07-14T13:45:39.840Z,101352.63
2018-07-14T13:48:07.464Z,101348.23
2018-07-14T13:50:35.369Z,101344.55
2018-07-14T13:53:03.700Z,101348.11
2018-07-14T13:55:32.398Z,101333.41
2018-07-14T13:58:00.656Z,101337.42
2018-07-14T14:00:29.268Z,101339.38
2018-07-14T14:02:56.896Z,101337.91
2018-07-14T14:05:24.274Z,101331.23
2018-07-14T14:07:51.674Z,101337.48
2018-07-14T14:10:18.833Z,101330.11
2018-07-14T14:12:46.189Z,101327.98
2018-07-14T14:15:13.501Z,101320.30
2018-07-14T14:17:40.758Z,101319.77
2018-07-14T14:20:07.964Z,101313.38
2018-07-14T14:22:35.581Z,101311.78
2018-07-14T14:25:03.920Z,101307.27
2018-07-14T14:27:31.607Z,101307.08
2018-07-14T14:29:59.884Z,101304.48
2018-07-14T14:32:28.519Z,101308.62
2018-07-14T14:34:57.292Z,101301.37
2018-07-14T14:37:26.350Z,101303.09
2018-07-14T14:39:55.462Z,101299.45
2018-07-14T14:42:24.870Z,101289.91
2018-07-14T14:44:55.461Z,101293.42
2018-07-14T14:47:27.825Z,101293.38
2018-07-14T14:49:55.751Z,101288.76
2018-07-14T14:52:24.415Z,101294.33
2018-07-14T14:54:51.883Z,101293.22
2018-07-14T14:57:19.752Z,101290.48
2018-07-14T14:59:47.097Z,101281.47
2018-07-14T15:02:14.619Z,101279.09
2018-07-14T15:04:42.008Z,101284.13
2018-07-14T15:07:09.935Z,101283.94
2018-07-14T15:09:37.490Z,101292.42
2018-07-14T15:12:05.351Z,101281.81
2018-07-14T15:14:34.256Z,101284.84
2018-07-14T15:17:02.288Z,101280.90
2018-07-14T15:19:29.844Z,101290.45
2018-07-14T15:21:57.996Z,101288.70
2018-07-14T15:24:26.755Z,101283.69
2018-07-14T15:26:56.064Z,101281.72
2018-07-14T15:29:24.459Z,101275.11
2018-07-14T15:31:52.005Z,101274.79
2018-07-14T15:34:19.223Z,101272.48
2018-07-14T15:36:46.379Z,101272.47
2018-07-14T15:39:13.631Z,101270.79
2018-07-14T15:41:40.851Z,101269.45
2018-07-14T15:44:08.872Z,101264.46
2018-07-14T15:46:35.970Z,101263.81
2018-07-14T15:49:03.233Z,101270.83
2018-07-14T15:51:30.521Z,101262.20
2018-07-14T15:53:57.737Z,101268.45
2018-07-14T15:56:24.993Z,101271.37
2018-07-14T15:58:54.058Z,101263.58
2018-07-14T16:01:22.312Z,101255.48
2018-07-14T16:03:49.621Z,101252.08
2018-07-14T16:06:16.791Z,101256.12
2018-07-14T16:08:45.614Z,101252.29
2018-07-14T16:11:12.803Z,101254.28
2018-07-14T16:13:40.989Z,101254.74
2018-07-14T16:16:08.239Z,101251.11
2018-07-14T16:18:35.440Z,101241.74
2018-07-14T16:21:02.612Z,101245.44
2018-07-14T16:23:29.848Z,101257.13
2018-07-14T16:25:57.048Z,101254.42
2018-07-14T16:28:24.436Z,101258.53
2018-07-14T16:30:51.543Z,101256.89
2018-07-14T16:33:18.747Z,101248.28
2018-07-14T16:35:45.992Z,101246.63
2018-07-14T16:38:13.032Z,101245.02
2018-07-14T16:40:41.156Z,101247.89
2018-07-14T16:43:08.332Z,101244.45
2018-07-14T16:45:35.472Z,101250.64
2018-07-14T16:48:02.768Z,101249.98
2018-07-14T16:50:30.667Z,101245.41
2018-07-14T16:52:58.039Z,101250.10
2018-07-14T16:55:28.268Z,101251.08
2018-07-14T16:57:58.095Z,101253.08
2018-07-14T17:00:28.458Z,101250.75
2018-07-14T17:02:57.724Z,101249.16
2018-07-14T17:05:26.819Z,101245.31
2018-07-14T17:07:55.580Z,101247.58
2018-07-14T17:10:26.422Z,101244.38
2018-07-14T17:12:55.697Z,101251.34
2018-07-14T17:15:26.005Z,101251.09
2018-07-14T17:17:54.651Z,101238.31
2018-07-14T17:20:23.008Z,101241.97
2018-07-14T17:22:50.448Z,101239.88
2018-07-14T17:25:17.693Z,101244.69
2018-07-14T17:27:44.831Z,101241.78
2018-07-14T17:30:13.337Z,101235.06
2018-07-14T17:32:47.018Z,101239.91
2018-07-14T17:35:14.670Z,101233.44
2018-07-14T17:37:42.477Z,101242.11
2018-07-14T17:40:10.052Z,101238.61
2018-07-14T17:42:37.883Z,101239.28
2018-07-14T17:45:06.379Z,101247.94
2018-07-14T17:47:35.240Z,101244.97
2018-07-14T17:50:04.075Z,101243.56
2018-07-14T17:52:32.697Z,101246.44
2018-07-14T17:55:01.763Z,101246.63
2018-07-14T17:57:30.077Z,101245.31
2018-07-14T17:59:57.614Z,101239.90
2018-07-14T18:02:25.255Z,101246.33
2018-07-14T18:04:52.498Z,101251.78
2018-07-14T18:07:19.591Z,101243.66
2018-07-14T18:09:46.776Z,101252.46
2018-07-14T18:12:13.872Z,101250.05
2018-07-14T18:14:41.028Z,101245.95
2018-07-14T18:17:08.268Z,101245.75
2018-07-14T18:19:35.501Z,101247.95
2018-07-14T18:22:02.677Z,101238.66
2018-07-14T18:24:29.933Z,101239.14
2018-07-14T18:26:57.143Z,101243.54
2018-07-14T18:29:25.497Z,101242.08
2018-07-14T18:31:53.108Z,101245.05
2018-07-14T18:34:20.224Z,101243.11
2018-07-14T18:36:47.312Z,101244.17
2018-07-14T18:39:14.444Z,101247.97
2018-07-14T18:41:41.584Z,101248.52
2018-07-14T18:44:10.088Z,101253.69
2018-07-14T18:46:37.268Z,101258.36
2018-07-14T18:49:05.461Z,101262.99
2018-07-14T18:51:32.600Z,101264.97
2018-07-14T18:53:59.812Z,101268.98
2018-07-14T18:56:26.998Z,101262.91
2018-07-14T18:58:55.072Z,101266.83
2018-07-14T19:01:22.443Z,101266.77
2018-07-14T19:03:49.629Z,101272.42
2018-07-14T19:06:16.975Z,101277.59
2018-07-14T19:08:44.249Z,101283.53
2018-07-14T19:11:11.367Z,101279.32
2018-07-14T19:13:38.566Z,101285.16
2018-07-14T19:16:05.811Z,101279.95
2018-07-14T19:18:32.920Z,101288.69
2018-07-14T19:21:00.119Z,101285.97
2018-07-14T19:23:27.761Z,101291.65
2018-07-14T19:25:55.033Z,101297.83
2018-07-14T19:28:22.247Z,101301.97
2018-07-14T19:30:49.621Z,101302.57
2018-07-14T19:33:16.780Z,101301.23
2018-07-14T19:35:44.017Z,101303.56
2018-07-14T19:38:11.183Z,101300.80
2018-07-14T19:40:38.316Z,101301.78
2018-07-14T19:43:05.525Z,101300.89
2018-07-14T19:45:32.776Z,101300.56
2018-07-14T19:48:01.922Z,101309.82
2018-07-14T19:50:29.624Z,101308.52
2018-07-14T19:52:56.930Z,101312.47
2018-07-14T19:55:24.125Z,101306.70
2018-07-14T19:57:51.293Z,101302.13
2018-07-14T20:00:18.514Z,101309.80
2018-07-14T20:02:45.666Z,101315.00
2018-07-14T20:05:13.838Z,101308.36
2018-07-14T20:07:41.855Z,101306.91
2018-07-14T20:10:08.946Z,101303.25
2018-07-14T20:12:36.073Z,101307.49
2018-07-14T20:15:03.336Z,101316.28
2018-07-14T20:17:32.195Z,101316.74
2018-07-14T20:19:59.394Z,101314.14
2018-07-14T20:22:27.548Z,101316.22
2018-07-14T20:24:54.902Z,101316.34
2018-07-14T20:27:22.137Z,101319.52
2018-07-14T20:29:49.399Z,101319.83
2018-07-14T20:32:16.525Z,101326.29
2018-07-14T20:34:43.719Z,101334.91
2018-07-14T20:37:10.945Z,101326.94
2018-07-14T20:39:38.148Z,101333.77
2018-07-14T20:42:05.261Z,101338.48
2018-07-14T20:44:32.670Z,101337.38
2018-07-14T20:46:59.920Z,101336.14
2018-07-14T20:49:27.056Z,101342.55
2018-07-14T20:51:54.329Z,101340.77
2018-07-14T20:54:22.666Z,101336.38
2018-07-14T20:56:50.042Z,101331.86
2018-07-14T20:59:17.276Z,101335.97
2018-07-14T21:01:44.373Z,101339.84
2018-07-14T21:04:11.465Z,101345.27
2018-07-14T21:06:39.503Z,101337.79
2018-07-14T21:09:06.803Z,101335.65
2018-07-14T21:11:33.974Z,101338.72
2018-07-14T21:14:01.950Z,101339.27
2018-07-14T21:16:29.159Z,101336.08
2018-07-14T21:18:56.384Z,101336.41
2018-07-14T21:21:25.073Z,101337.50
2018-07-14T21:23:52.315Z,101337.00
2018-07-14T21:26:19.440Z,101341.00
2018-07-14T21:28:46.584Z,101342.16
2018-07-14T21:31:13.945Z,101341.52
2018-07-14T21:33:41.038Z,101344.75
2018-07-14T21:36:08.173Z,101344.34
2018-07-14T21:38:35.306Z,101344.55
2018-07-14T21:41:02.765Z,101346.05
2018-07-14T21:43:30.142Z,101349.11
2018-07-14T21:45:57.403Z,101348.80
2018-07-14T21:48:24.982Z,101351.67
2018-07-14T21:50:52.279Z,101354.59
2018-07-14T21:53:19.470Z,101353.56
2018-07-14T21:55:46.606Z,101359.75
2018-07-14T21:58:13.738Z,101359.53
2018-07-14T22:00:46.669Z,101357.25
2018-07-14T22:03:13.828Z,101369.30
2018-07-14T22:05:41.209Z,101368.44
2018-07-14T22:08:08.329Z,101365.30
2018-07-14T22:10:35.535Z,101367.36
2018-07-14T22:13:02.824Z,101363.62
2018-07-14T22:15:30.019Z,101364.22
2018-07-14T22:17:58.648Z,101363.58
2018-07-14T22:20:26.044Z,101362.30
2018-07-14T22:22:53.287Z,101357.62
2018-07-14T22:25:20.557Z,101368.75
2018-07-14T22:27:47.687Z,101375.60
2018-07-14T22:30:14.783Z,101377.30
2018-07-14T22:32:42.669Z,101364.12
2018-07-14T22:35:09.764Z,101363.53
2018-07-14T22:37:37.229Z,101364.05
2018-07-14T22:40:04.643Z,101367.42
2018-07-14T22:42:31.768Z,101364.95
2018-07-14T22:44:58.898Z,101371.22
2018-07-14T22:47:26.105Z,101371.86
2018-07-14T22:49:53.449Z,101366.31
2018-07-14T22:52:21.609Z,101360.33
2018-07-14T22:54:48.780Z,101360.42
2018-07-14T22:57:15.890Z,101360.05
2018-07-14T22:59:43.004Z,101358.16
2018-07-14T23:02:11.539Z,101360.11
2018-07-14T23:04:38.652Z,101358.22
2018-07-14T23:07:05.776Z,101360.13
2018-07-14T23:09:33.680Z,101361.21
2018-07-14T23:12:00.958Z,101363.66
2018-07-14T23:14:28.746Z,101362.37
2018-07-14T23:16:56.457Z,101364.41
2018-07-14T23:19:23.704Z,101363.73
2018-07-14T23:21:54.217Z,101361.17
2018-07-14T23:24:21.359Z,101358.11
2018-07-14T23:26:48.674Z,101353.88
2018-07-14T23:29:16.151Z,101361.00
2018-07-14T23:31:43.593Z,101357.67
2018-07-14T23:34:10.728Z,101356.39
2018-07-14T23:36:37.843Z,101361.39
2018-07-14T23:39:06.420Z,101359.23
2018-07-14T23:41:33.588Z,101361.09
2018-07-14T23:44:00.744Z,101352.14
2018-07-14T23:46:27.994Z,101354.11
2018-07-14T23:48:55.463Z,101351.42
2018-07-14T23:51:22.795Z,101353.81
2018-07-14T23:53:50.036Z,101358.35
2018-07-14T23:56:17.233Z,101350.14
2018-07-14T23:58:44.467Z,101353.32
